sensor_id;sensor_type;location;lat;lon;timestamp;P1;durP1;ratioP1;P2;durP2;ratioP2
75680;SDS011;64294;49.176;16.626;2023-08-06T00:00:05;1.50;;;1.10;;
75680;SDS011;64294;49.176;16.626;2023-08-06T00:02:31;1.20;;;1.10;;
75680;SDS011;64294;49.176;16.626;2023-08-06T00:04:56;0.90;;;0.90;;
75680;SDS011;64294;49.176;16.626;2023-08-06T00:07:21;1.60;;;1.10;;
75680;SDS011;64294;49.176;16.626;2023-08-06T00:09:47;2.42;;;1.00;;
75680;SDS011;64294;49.176;16.626;2023-08-06T00:12:13;1.45;;;1.10;;
75680;SDS011;64294;49.176;16.626;2023-08-06T00:14:38;1.90;;;1.30;;
75680;SDS011;64294;49.176;16.626;2023-08-06T00:17:04;1.95;;;1.20;;
75680;SDS011;64294;49.176;16.626;2023-08-06T00:19:30;1.10;;;1.00;;
75680;SDS011;64294;49.176;16.626;2023-08-06T00:21:57;1.23;;;1.10;;
75680;SDS011;64294;49.176;16.626;2023-08-06T00:24:23;1.23;;;1.10;;
75680;SDS011;64294;49.176;16.626;2023-08-06T00:26:48;2.50;;;1.17;;
75680;SDS011;64294;49.176;16.626;2023-08-06T00:29:14;4.88;;;1.55;;
75680;SDS011;64294;49.176;16.626;2023-08-06T00:31:39;1.67;;;1.00;;
75680;SDS011;64294;49.176;16.626;2023-08-06T00:34:05;1.13;;;1.02;;
75680;SDS011;64294;49.176;16.626;2023-08-06T00:36:30;1.77;;;1.00;;
75680;SDS011;64294;49.176;16.626;2023-08-06T00:38:55;1.45;;;1.02;;
75680;SDS011;64294;49.176;16.626;2023-08-06T00:41:21;1.52;;;1.10;;
75680;SDS011;64294;49.176;16.626;2023-08-06T00:43:46;1.10;;;1.00;;
75680;SDS011;64294;49.176;16.626;2023-08-06T00:46:12;1.10;;;1.00;;
75680;SDS011;64294;49.176;16.626;2023-08-06T00:48:38;1.13;;;1.00;;
75680;SDS011;64294;49.176;16.626;2023-08-06T00:51:04;1.13;;;0.90;;
75680;SDS011;64294;49.176;16.626;2023-08-06T00:53:30;1.95;;;0.90;;
75680;SDS011;64294;49.176;16.626;2023-08-06T00:55:57;0.90;;;0.90;;
75680;SDS011;64294;49.176;16.626;2023-08-06T00:58:23;1.58;;;1.00;;
75680;SDS011;64294;49.176;16.626;2023-08-06T01:00:48;2.03;;;1.00;;
75680;SDS011;64294;49.176;16.626;2023-08-06T01:03:13;1.77;;;0.90;;
75680;SDS011;64294;49.176;16.626;2023-08-06T01:05:39;1.38;;;0.80;;
75680;SDS011;64294;49.176;16.626;2023-08-06T01:16:06;2.35;;;0.85;;
75680;SDS011;64294;49.176;16.626;2023-08-06T01:18:32;1.05;;;0.85;;
75680;SDS011;64294;49.176;16.626;2023-08-06T01:20:57;1.38;;;0.98;;
75680;SDS011;64294;49.176;16.626;2023-08-06T01:23:23;2.28;;;0.80;;
75680;SDS011;64294;49.176;16.626;2023-08-06T01:28:52;0.98;;;0.82;;
75680;SDS011;64294;49.176;16.626;2023-08-06T01:31:26;1.50;;;0.90;;
75680;SDS011;64294;49.176;16.626;2023-08-06T01:33:55;2.08;;;0.80;;
75680;SDS011;64294;49.176;16.626;2023-08-06T01:36:23;2.85;;;0.90;;
75680;SDS011;64294;49.176;16.626;2023-08-06T01:38:48;1.52;;;0.90;;
75680;SDS011;64294;49.176;16.626;2023-08-06T01:41:17;0.88;;;0.88;;
75680;SDS011;64294;49.176;16.626;2023-08-06T01:43:43;2.08;;;1.00;;
75680;SDS011;64294;49.176;16.626;2023-08-06T01:46:08;2.92;;;1.10;;
75680;SDS011;64294;49.176;16.626;2023-08-06T01:48:33;0.90;;;0.90;;
75680;SDS011;64294;49.176;16.626;2023-08-06T01:50:59;2.10;;;0.90;;
75680;SDS011;64294;49.176;16.626;2023-08-06T01:53:24;1.27;;;1.00;;
75680;SDS011;64294;49.176;16.626;2023-08-06T01:55:50;5.65;;;1.15;;
75680;SDS011;64294;49.176;16.626;2023-08-06T01:58:15;1.85;;;0.90;;
75680;SDS011;64294;49.176;16.626;2023-08-06T02:00:41;1.92;;;1.20;;
75680;SDS011;64294;49.176;16.626;2023-08-06T02:03:06;1.25;;;1.00;;
75680;SDS011;64294;49.176;16.626;2023-08-06T02:05:32;0.90;;;0.90;;
75680;SDS011;64294;49.176;16.626;2023-08-06T02:07:57;2.75;;;1.00;;
75680;SDS011;64294;49.176;16.626;2023-08-06T02:10:22;1.45;;;0.80;;
75680;SDS011;64294;49.176;16.626;2023-08-06T02:12:48;2.42;;;1.00;;
75680;SDS011;64294;49.176;16.626;2023-08-06T02:15:13;1.45;;;0.98;;
75680;SDS011;64294;49.176;16.626;2023-08-06T02:17:39;0.82;;;0.80;;
75680;SDS011;64294;49.176;16.626;2023-08-06T02:20:04;2.53;;;0.90;;
75680;SDS011;64294;49.176;16.626;2023-08-06T02:22:30;1.60;;;0.90;;
75680;SDS011;64294;49.176;16.626;2023-08-06T02:24:56;1.00;;;0.90;;
75680;SDS011;64294;49.176;16.626;2023-08-06T02:27:21;2.15;;;0.70;;
75680;SDS011;64294;49.176;16.626;2023-08-06T02:29:46;0.70;;;0.70;;
75680;SDS011;64294;49.176;16.626;2023-08-06T02:32:12;3.67;;;0.75;;
75680;SDS011;64294;49.176;16.626;2023-08-06T02:34:37;1.90;;;0.70;;
75680;SDS011;64294;49.176;16.626;2023-08-06T02:37:03;1.88;;;0.80;;
75680;SDS011;64294;49.176;16.626;2023-08-06T02:39:28;0.80;;;0.80;;
75680;SDS011;64294;49.176;16.626;2023-08-06T02:41:54;0.80;;;0.80;;
75680;SDS011;64294;49.176;16.626;2023-08-06T02:44:19;2.05;;;0.80;;
75680;SDS011;64294;49.176;16.626;2023-08-06T02:46:44;1.02;;;0.70;;
75680;SDS011;64294;49.176;16.626;2023-08-06T02:49:10;0.77;;;0.77;;
75680;SDS011;64294;49.176;16.626;2023-08-06T02:51:36;1.38;;;0.80;;
75680;SDS011;64294;49.176;16.626;2023-08-06T02:54:01;0.70;;;0.70;;
75680;SDS011;64294;49.176;16.626;2023-08-06T02:56:26;1.88;;;0.80;;
75680;SDS011;64294;49.176;16.626;2023-08-06T02:58:52;1.33;;;0.90;;
75680;SDS011;64294;49.176;16.626;2023-08-06T03:01:17;1.17;;;0.90;;
75680;SDS011;64294;49.176;16.626;2023-08-06T03:03:43;4.10;;;0.90;;
75680;SDS011;64294;49.176;16.626;2023-08-06T03:06:08;0.70;;;0.70;;
75680;SDS011;64294;49.176;16.626;2023-08-06T03:08:33;0.70;;;0.70;;
75680;SDS011;64294;49.176;16.626;2023-08-06T03:10:59;1.58;;;0.73;;
75680;SDS011;64294;49.176;16.626;2023-08-06T03:13:24;0.90;;;0.70;;
75680;SDS011;64294;49.176;16.626;2023-08-06T03:15:57;3.42;;;0.70;;
75680;SDS011;64294;49.176;16.626;2023-08-06T03:18:24;1.80;;;0.70;;
75680;SDS011;64294;49.176;16.626;2023-08-06T03:20:52;0.80;;;0.70;;
75680;SDS011;64294;49.176;16.626;2023-08-06T03:23:18;1.65;;;0.60;;
75680;SDS011;64294;49.176;16.626;2023-08-06T03:25:44;1.20;;;0.75;;
75680;SDS011;64294;49.176;16.626;2023-08-06T03:28:09;1.52;;;0.73;;
75680;SDS011;64294;49.176;16.626;2023-08-06T03:30:35;1.08;;;0.70;;
75680;SDS011;64294;49.176;16.626;2023-08-06T03:33:00;1.08;;;0.70;;
75680;SDS011;64294;49.176;16.626;2023-08-06T03:35:25;0.60;;;0.60;;
75680;SDS011;64294;49.176;16.626;2023-08-06T03:37:51;1.73;;;0.68;;
75680;SDS011;64294;49.176;16.626;2023-08-06T03:40:16;1.63;;;0.80;;
75680;SDS011;64294;49.176;16.626;2023-08-06T03:42:42;1.55;;;0.60;;
75680;SDS011;64294;49.176;16.626;2023-08-06T03:45:07;1.90;;;0.65;;
75680;SDS011;64294;49.176;16.626;2023-08-06T03:47:33;1.70;;;0.60;;
75680;SDS011;64294;49.176;16.626;2023-08-06T03:49:59;0.82;;;0.60;;
75680;SDS011;64294;49.176;16.626;2023-08-06T03:52:24;1.25;;;0.60;;
75680;SDS011;64294;49.176;16.626;2023-08-06T03:54:50;1.90;;;0.70;;
75680;SDS011;64294;49.176;16.626;2023-08-06T03:57:15;0.70;;;0.70;;
75680;SDS011;64294;49.176;16.626;2023-08-06T03:59:41;0.60;;;0.60;;
75680;SDS011;64294;49.176;16.626;2023-08-06T04:02:06;0.65;;;0.65;;
75680;SDS011;64294;49.176;16.626;2023-08-06T04:04:31;0.90;;;0.70;;
75680;SDS011;64294;49.176;16.626;2023-08-06T04:06:57;0.93;;;0.60;;
75680;SDS011;64294;49.176;16.626;2023-08-06T04:09:22;1.58;;;0.70;;
75680;SDS011;64294;49.176;16.626;2023-08-06T04:11:47;0.60;;;0.60;;
75680;SDS011;64294;49.176;16.626;2023-08-06T04:14:13;1.15;;;0.70;;
75680;SDS011;64294;49.176;16.626;2023-08-06T04:16:38;1.55;;;0.60;;
75680;SDS011;64294;49.176;16.626;2023-08-06T04:19:04;1.05;;;0.65;;
75680;SDS011;64294;49.176;16.626;2023-08-06T04:21:29;1.25;;;0.60;;
75680;SDS011;64294;49.176;16.626;2023-08-06T04:23:55;2.47;;;0.60;;
75680;SDS011;64294;49.176;16.626;2023-08-06T04:26:21;1.00;;;0.50;;
75680;SDS011;64294;49.176;16.626;2023-08-06T04:28:46;1.00;;;0.60;;
75680;SDS011;64294;49.176;16.626;2023-08-06T04:31:12;1.30;;;0.82;;
75680;SDS011;64294;49.176;16.626;2023-08-06T04:33:37;2.08;;;0.60;;
75680;SDS011;64294;49.176;16.626;2023-08-06T04:36:03;0.60;;;0.60;;
75680;SDS011;64294;49.176;16.626;2023-08-06T04:38:28;0.60;;;0.60;;
75680;SDS011;64294;49.176;16.626;2023-08-06T04:40:54;1.00;;;0.73;;
75680;SDS011;64294;49.176;16.626;2023-08-06T04:43:19;1.20;;;0.60;;
75680;SDS011;64294;49.176;16.626;2023-08-06T04:45:53;0.75;;;0.60;;
75680;SDS011;64294;49.176;16.626;2023-08-06T04:48:19;0.60;;;0.60;;
75680;SDS011;64294;49.176;16.626;2023-08-06T04:50:45;0.60;;;0.60;;
75680;SDS011;64294;49.176;16.626;2023-08-06T04:53:11;2.03;;;1.25;;
75680;SDS011;64294;49.176;16.626;2023-08-06T04:55:37;1.73;;;0.90;;
75680;SDS011;64294;49.176;16.626;2023-08-06T04:58:03;4.40;;;1.10;;
75680;SDS011;64294;49.176;16.626;2023-08-06T05:00:29;0.50;;;0.50;;
75680;SDS011;64294;49.176;16.626;2023-08-06T05:02:54;0.60;;;0.60;;
75680;SDS011;64294;49.176;16.626;2023-08-06T05:05:20;0.60;;;0.60;;
75680;SDS011;64294;49.176;16.626;2023-08-06T05:07:48;2.05;;;0.70;;
75680;SDS011;64294;49.176;16.626;2023-08-06T05:10:14;0.77;;;0.65;;
75680;SDS011;64294;49.176;16.626;2023-08-06T05:12:40;0.85;;;0.70;;
75680;SDS011;64294;49.176;16.626;2023-08-06T05:15:06;0.70;;;0.70;;
75680;SDS011;64294;49.176;16.626;2023-08-06T05:17:32;1.38;;;0.60;;
75680;SDS011;64294;49.176;16.626;2023-08-06T05:19:57;1.10;;;0.70;;
75680;SDS011;64294;49.176;16.626;2023-08-06T05:22:23;0.70;;;0.70;;
75680;SDS011;64294;49.176;16.626;2023-08-06T05:24:48;1.08;;;0.65;;
75680;SDS011;64294;49.176;16.626;2023-08-06T05:27:14;1.75;;;0.70;;
75680;SDS011;64294;49.176;16.626;2023-08-06T05:29:39;0.70;;;0.70;;
75680;SDS011;64294;49.176;16.626;2023-08-06T05:32:05;0.70;;;0.70;;
75680;SDS011;64294;49.176;16.626;2023-08-06T05:34:31;1.17;;;0.60;;
75680;SDS011;64294;49.176;16.626;2023-08-06T05:36:56;1.75;;;0.73;;
75680;SDS011;64294;49.176;16.626;2023-08-06T05:39:21;0.63;;;0.63;;
75680;SDS011;64294;49.176;16.626;2023-08-06T05:41:47;0.93;;;0.70;;
75680;SDS011;64294;49.176;16.626;2023-08-06T05:44:12;0.95;;;0.60;;
75680;SDS011;64294;49.176;16.626;2023-08-06T05:46:38;0.60;;;0.60;;
75680;SDS011;64294;49.176;16.626;2023-08-06T05:49:03;0.80;;;0.70;;
75680;SDS011;64294;49.176;16.626;2023-08-06T05:51:30;1.85;;;0.70;;
75680;SDS011;64294;49.176;16.626;2023-08-06T05:53:55;0.70;;;0.70;;
75680;SDS011;64294;49.176;16.626;2023-08-06T05:56:21;1.02;;;0.70;;
75680;SDS011;64294;49.176;16.626;2023-08-06T05:58:46;1.10;;;0.77;;
75680;SDS011;64294;49.176;16.626;2023-08-06T06:01:12;0.70;;;0.70;;
75680;SDS011;64294;49.176;16.626;2023-08-06T06:03:38;1.45;;;0.70;;
75680;SDS011;64294;49.176;16.626;2023-08-06T06:06:03;3.00;;;0.63;;
75680;SDS011;64294;49.176;16.626;2023-08-06T06:08:29;1.05;;;0.82;;
75680;SDS011;64294;49.176;16.626;2023-08-06T06:10:54;0.60;;;0.60;;
75680;SDS011;64294;49.176;16.626;2023-08-06T06:13:20;3.22;;;0.70;;
75680;SDS011;64294;49.176;16.626;2023-08-06T06:15:48;1.58;;;0.70;;
75680;SDS011;64294;49.176;16.626;2023-08-06T06:18:15;0.60;;;0.60;;
75680;SDS011;64294;49.176;16.626;2023-08-06T06:20:40;0.75;;;0.60;;
75680;SDS011;64294;49.176;16.626;2023-08-06T06:23:05;2.42;;;0.88;;
75680;SDS011;64294;49.176;16.626;2023-08-06T06:25:31;0.80;;;0.70;;
75680;SDS011;64294;49.176;16.626;2023-08-06T06:27:56;0.75;;;0.75;;
75680;SDS011;64294;49.176;16.626;2023-08-06T06:30:23;0.80;;;0.80;;
75680;SDS011;64294;49.176;16.626;2023-08-06T06:32:49;0.88;;;0.80;;
75680;SDS011;64294;49.176;16.626;2023-08-06T06:35:14;0.88;;;0.70;;
75680;SDS011;64294;49.176;16.626;2023-08-06T06:37:39;0.98;;;0.70;;
75680;SDS011;64294;49.176;16.626;2023-08-06T06:40:05;0.75;;;0.75;;
75680;SDS011;64294;49.176;16.626;2023-08-06T06:42:31;0.70;;;0.70;;
75680;SDS011;64294;49.176;16.626;2023-08-06T06:44:56;2.05;;;0.90;;
75680;SDS011;64294;49.176;16.626;2023-08-06T06:47:22;1.15;;;0.80;;
75680;SDS011;64294;49.176;16.626;2023-08-06T06:49:47;2.20;;;0.82;;
75680;SDS011;64294;49.176;16.626;2023-08-06T06:52:12;1.40;;;0.68;;
75680;SDS011;64294;49.176;16.626;2023-08-06T06:54:38;0.70;;;0.70;;
75680;SDS011;64294;49.176;16.626;2023-08-06T06:57:04;2.22;;;0.80;;
75680;SDS011;64294;49.176;16.626;2023-08-06T06:59:29;0.70;;;0.70;;
75680;SDS011;64294;49.176;16.626;2023-08-06T07:01:55;1.30;;;0.70;;
75680;SDS011;64294;49.176;16.626;2023-08-06T07:04:20;1.88;;;0.80;;
75680;SDS011;64294;49.176;16.626;2023-08-06T07:06:46;0.80;;;0.80;;
75680;SDS011;64294;49.176;16.626;2023-08-06T07:09:12;0.98;;;0.70;;
75680;SDS011;64294;49.176;16.626;2023-08-06T07:11:37;4.55;;;0.80;;
75680;SDS011;64294;49.176;16.626;2023-08-06T07:14:03;0.80;;;0.80;;
75680;SDS011;64294;49.176;16.626;2023-08-06T07:16:31;0.80;;;0.80;;
75680;SDS011;64294;49.176;16.626;2023-08-06T07:18:57;1.88;;;1.00;;
75680;SDS011;64294;49.176;16.626;2023-08-06T07:21:22;0.80;;;0.80;;
75680;SDS011;64294;49.176;16.626;2023-08-06T07:23:48;1.45;;;1.00;;
75680;SDS011;64294;49.176;16.626;2023-08-06T07:26:14;0.80;;;0.80;;
75680;SDS011;64294;49.176;16.626;2023-08-06T07:28:41;0.82;;;0.80;;
75680;SDS011;64294;49.176;16.626;2023-08-06T07:31:06;1.10;;;0.82;;
75680;SDS011;64294;49.176;16.626;2023-08-06T07:33:32;1.63;;;0.85;;
75680;SDS011;64294;49.176;16.626;2023-08-06T07:35:57;0.90;;;0.90;;
75680;SDS011;64294;49.176;16.626;2023-08-06T07:38:23;0.82;;;0.80;;
75680;SDS011;64294;49.176;16.626;2023-08-06T07:40:48;1.15;;;0.85;;
75680;SDS011;64294;49.176;16.626;2023-08-06T07:43:14;0.70;;;0.70;;
75680;SDS011;64294;49.176;16.626;2023-08-06T07:45:39;1.65;;;0.70;;
75680;SDS011;64294;49.176;16.626;2023-08-06T07:48:05;0.80;;;0.80;;
75680;SDS011;64294;49.176;16.626;2023-08-06T07:50:30;1.00;;;0.95;;
75680;SDS011;64294;49.176;16.626;2023-08-06T07:52:56;0.70;;;0.70;;
75680;SDS011;64294;49.176;16.626;2023-08-06T07:55:21;1.00;;;0.90;;
75680;SDS011;64294;49.176;16.626;2023-08-06T07:57:47;1.15;;;1.00;;
75680;SDS011;64294;49.176;16.626;2023-08-06T08:00:12;2.75;;;1.42;;
75680;SDS011;64294;49.176;16.626;2023-08-06T08:02:38;1.02;;;0.90;;
75680;SDS011;64294;49.176;16.626;2023-08-06T08:05:03;2.15;;;0.80;;
75680;SDS011;64294;49.176;16.626;2023-08-06T08:07:29;1.02;;;0.95;;
75680;SDS011;64294;49.176;16.626;2023-08-06T08:09:56;1.70;;;0.73;;
75680;SDS011;64294;49.176;16.626;2023-08-06T08:12:21;2.05;;;0.95;;
75680;SDS011;64294;49.176;16.626;2023-08-06T08:14:47;0.60;;;0.60;;
75680;SDS011;64294;49.176;16.626;2023-08-06T08:17:13;0.85;;;0.85;;
75680;SDS011;64294;49.176;16.626;2023-08-06T08:19:39;0.75;;;0.75;;
75680;SDS011;64294;49.176;16.626;2023-08-06T08:22:05;1.25;;;0.90;;
75680;SDS011;64294;49.176;16.626;2023-08-06T08:24:31;0.80;;;0.80;;
75680;SDS011;64294;49.176;16.626;2023-08-06T08:26:56;1.70;;;1.20;;
75680;SDS011;64294;49.176;16.626;2023-08-06T08:29:22;1.00;;;0.90;;
75680;SDS011;64294;49.176;16.626;2023-08-06T08:31:48;1.10;;;0.80;;
75680;SDS011;64294;49.176;16.626;2023-08-06T08:34:18;2.45;;;1.00;;
75680;SDS011;64294;49.176;16.626;2023-08-06T08:36:44;1.27;;;0.93;;
75680;SDS011;64294;49.176;16.626;2023-08-06T08:39:12;1.30;;;0.85;;
75680;SDS011;64294;49.176;16.626;2023-08-06T08:41:38;0.90;;;0.90;;
75680;SDS011;64294;49.176;16.626;2023-08-06T08:44:05;4.93;;;1.45;;
75680;SDS011;64294;49.176;16.626;2023-08-06T08:46:34;2.15;;;1.00;;
75680;SDS011;64294;49.176;16.626;2023-08-06T08:49:01;6.82;;;1.35;;
75680;SDS011;64294;49.176;16.626;2023-08-06T08:51:27;2.33;;;1.50;;
75680;SDS011;64294;49.176;16.626;2023-08-06T08:53:53;1.00;;;0.90;;
75680;SDS011;64294;49.176;16.626;2023-08-06T08:56:21;1.08;;;0.90;;
75680;SDS011;64294;49.176;16.626;2023-08-06T08:58:47;2.05;;;1.50;;
75680;SDS011;64294;49.176;16.626;2023-08-06T09:01:13;1.13;;;1.02;;
75680;SDS011;64294;49.176;16.626;2023-08-06T09:03:40;1.00;;;1.00;;
75680;SDS011;64294;49.176;16.626;2023-08-06T09:06:06;1.10;;;1.00;;
75680;SDS011;64294;49.176;16.626;2023-08-06T09:08:34;1.45;;;1.20;;
75680;SDS011;64294;49.176;16.626;2023-08-06T09:11:03;1.63;;;1.10;;
75680;SDS011;64294;49.176;16.626;2023-08-06T09:13:30;3.72;;;2.70;;
75680;SDS011;64294;49.176;16.626;2023-08-06T09:15:55;2.65;;;1.92;;
75680;SDS011;64294;49.176;16.626;2023-08-06T09:18:27;2.95;;;1.83;;
75680;SDS011;64294;49.176;16.626;2023-08-06T09:20:56;3.40;;;2.20;;
75680;SDS011;64294;49.176;16.626;2023-08-06T09:23:29;1.60;;;1.40;;
75680;SDS011;64294;49.176;16.626;2023-08-06T09:25:58;3.20;;;1.70;;
75680;SDS011;64294;49.176;16.626;2023-08-06T09:28:24;1.40;;;1.30;;
75680;SDS011;64294;49.176;16.626;2023-08-06T09:30:50;1.67;;;1.40;;
75680;SDS011;64294;49.176;16.626;2023-08-06T09:33:20;2.90;;;1.63;;
75680;SDS011;64294;49.176;16.626;2023-08-06T09:35:47;2.90;;;1.77;;
75680;SDS011;64294;49.176;16.626;2023-08-06T09:38:13;1.92;;;1.45;;
75680;SDS011;64294;49.176;16.626;2023-08-06T09:40:38;1.52;;;1.42;;
75680;SDS011;64294;49.176;16.626;2023-08-06T09:43:05;2.75;;;1.30;;
75680;SDS011;64294;49.176;16.626;2023-08-06T09:45:32;1.30;;;1.20;;
75680;SDS011;64294;49.176;16.626;2023-08-06T09:47:59;1.67;;;1.20;;
75680;SDS011;64294;49.176;16.626;2023-08-06T09:50:32;1.98;;;1.33;;
75680;SDS011;64294;49.176;16.626;2023-08-06T09:53:01;1.65;;;1.20;;
75680;SDS011;64294;49.176;16.626;2023-08-06T09:55:28;3.13;;;1.40;;
75680;SDS011;64294;49.176;16.626;2023-08-06T09:57:53;1.50;;;1.10;;
75680;SDS011;64294;49.176;16.626;2023-08-06T10:00:19;1.48;;;1.20;;
75680;SDS011;64294;49.176;16.626;2023-08-06T10:02:46;1.42;;;1.20;;
75680;SDS011;64294;49.176;16.626;2023-08-06T10:05:12;4.00;;;1.20;;
75680;SDS011;64294;49.176;16.626;2023-08-06T10:07:37;1.60;;;1.20;;
75680;SDS011;64294;49.176;16.626;2023-08-06T10:10:05;2.63;;;1.27;;
75680;SDS011;64294;49.176;16.626;2023-08-06T10:12:35;1.50;;;1.40;;
75680;SDS011;64294;49.176;16.626;2023-08-06T10:15:09;1.38;;;1.27;;
75680;SDS011;64294;49.176;16.626;2023-08-06T10:17:37;1.80;;;1.30;;
75680;SDS011;64294;49.176;16.626;2023-08-06T10:20:07;2.13;;;1.38;;
75680;SDS011;64294;49.176;16.626;2023-08-06T10:22:33;2.35;;;1.60;;
75680;SDS011;64294;49.176;16.626;2023-08-06T10:24:59;3.08;;;1.35;;
75680;SDS011;64294;49.176;16.626;2023-08-06T10:27:30;2.47;;;1.30;;
75680;SDS011;64294;49.176;16.626;2023-08-06T10:32:48;1.23;;;1.13;;
75680;SDS011;64294;49.176;16.626;2023-08-06T10:40:40;1.30;;;1.20;;
75680;SDS011;64294;49.176;16.626;2023-08-06T10:43:07;1.30;;;1.20;;
75680;SDS011;64294;49.176;16.626;2023-08-06T10:45:35;1.20;;;1.10;;
75680;SDS011;64294;49.176;16.626;2023-08-06T10:48:01;1.45;;;1.10;;
75680;SDS011;64294;49.176;16.626;2023-08-06T10:50:27;1.10;;;1.10;;
75680;SDS011;64294;49.176;16.626;2023-08-06T10:52:52;2.03;;;1.30;;
75680;SDS011;64294;49.176;16.626;2023-08-06T10:55:27;1.40;;;1.15;;
75680;SDS011;64294;49.176;16.626;2023-08-06T10:57:54;1.33;;;1.17;;
75680;SDS011;64294;49.176;16.626;2023-08-06T11:00:21;1.65;;;1.20;;
75680;SDS011;64294;49.176;16.626;2023-08-06T11:02:48;2.05;;;1.52;;
75680;SDS011;64294;49.176;16.626;2023-08-06T11:05:15;2.75;;;1.58;;
75680;SDS011;64294;49.176;16.626;2023-08-06T11:07:40;2.47;;;1.80;;
75680;SDS011;64294;49.176;16.626;2023-08-06T11:10:10;1.40;;;1.30;;
75680;SDS011;64294;49.176;16.626;2023-08-06T11:12:39;1.70;;;1.40;;
75680;SDS011;64294;49.176;16.626;2023-08-06T11:15:05;1.50;;;1.40;;
75680;SDS011;64294;49.176;16.626;2023-08-06T11:17:32;2.17;;;1.60;;
75680;SDS011;64294;49.176;16.626;2023-08-06T11:19:59;1.60;;;1.50;;
75680;SDS011;64294;49.176;16.626;2023-08-06T11:22:24;1.50;;;1.40;;
75680;SDS011;64294;49.176;16.626;2023-08-06T11:24:50;1.83;;;1.48;;
75680;SDS011;64294;49.176;16.626;2023-08-06T11:27:16;1.58;;;1.40;;
75680;SDS011;64294;49.176;16.626;2023-08-06T11:29:42;2.63;;;1.80;;
75680;SDS011;64294;49.176;16.626;2023-08-06T11:32:09;2.33;;;1.70;;
75680;SDS011;64294;49.176;16.626;2023-08-06T11:34:35;2.22;;;1.90;;
75680;SDS011;64294;49.176;16.626;2023-08-06T11:37:02;1.65;;;1.48;;
75680;SDS011;64294;49.176;16.626;2023-08-06T11:39:30;1.35;;;1.25;;
75680;SDS011;64294;49.176;16.626;2023-08-06T11:41:59;3.92;;;1.63;;
75680;SDS011;64294;49.176;16.626;2023-08-06T11:44:29;1.70;;;1.52;;
75680;SDS011;64294;49.176;16.626;2023-08-06T11:47:00;2.63;;;1.57;;
75680;SDS011;64294;49.176;16.626;2023-08-06T11:52:21;2.47;;;1.50;;
75680;SDS011;64294;49.176;16.626;2023-08-06T11:57:31;3.58;;;1.67;;
75680;SDS011;64294;49.176;16.626;2023-08-06T12:00:03;1.70;;;1.60;;
75680;SDS011;64294;49.176;16.626;2023-08-06T12:02:32;7.20;;;2.97;;
75680;SDS011;64294;49.176;16.626;2023-08-06T12:05:13;4.53;;;2.00;;
75680;SDS011;64294;49.176;16.626;2023-08-06T12:07:43;1.60;;;1.50;;
75680;SDS011;64294;49.176;16.626;2023-08-06T12:10:16;2.55;;;1.73;;
75680;SDS011;64294;49.176;16.626;2023-08-06T12:12:42;3.22;;;1.70;;
75680;SDS011;64294;49.176;16.626;2023-08-06T12:15:08;4.05;;;2.00;;
75680;SDS011;64294;49.176;16.626;2023-08-06T12:17:35;2.10;;;1.70;;
75680;SDS011;64294;49.176;16.626;2023-08-06T12:20:01;2.22;;;1.73;;
75680;SDS011;64294;49.176;16.626;2023-08-06T12:22:29;2.22;;;1.92;;
75680;SDS011;64294;49.176;16.626;2023-08-06T12:24:59;2.35;;;1.75;;
75680;SDS011;64294;49.176;16.626;2023-08-06T12:27:26;4.20;;;2.35;;
75680;SDS011;64294;49.176;16.626;2023-08-06T12:29:51;3.00;;;2.00;;
75680;SDS011;64294;49.176;16.626;2023-08-06T12:32:17;4.00;;;2.10;;
75680;SDS011;64294;49.176;16.626;2023-08-06T12:34:42;2.90;;;2.10;;
75680;SDS011;64294;49.176;16.626;2023-08-06T12:37:08;4.63;;;2.70;;
75680;SDS011;64294;49.176;16.626;2023-08-06T12:39:37;3.03;;;2.42;;
75680;SDS011;64294;49.176;16.626;2023-08-06T12:42:03;3.45;;;2.63;;
75680;SDS011;64294;49.176;16.626;2023-08-06T12:44:30;3.85;;;2.42;;
75680;SDS011;64294;49.176;16.626;2023-08-06T12:46:56;3.60;;;2.00;;
75680;SDS011;64294;49.176;16.626;2023-08-06T12:49:21;3.92;;;2.58;;
75680;SDS011;64294;49.176;16.626;2023-08-06T12:51:48;3.78;;;2.40;;
75680;SDS011;64294;49.176;16.626;2023-08-06T12:54:15;4.53;;;2.78;;
75680;SDS011;64294;49.176;16.626;2023-08-06T12:56:50;3.53;;;2.50;;
75680;SDS011;64294;49.176;16.626;2023-08-06T12:59:16;5.03;;;2.70;;
75680;SDS011;64294;49.176;16.626;2023-08-06T13:01:42;4.05;;;2.83;;
75680;SDS011;64294;49.176;16.626;2023-08-06T13:04:09;4.68;;;2.90;;
75680;SDS011;64294;49.176;16.626;2023-08-06T13:06:35;3.38;;;2.60;;
75680;SDS011;64294;49.176;16.626;2023-08-06T13:09:04;4.18;;;2.70;;
75680;SDS011;64294;49.176;16.626;2023-08-06T13:11:33;4.32;;;2.40;;
75680;SDS011;64294;49.176;16.626;2023-08-06T13:14:33;3.75;;;2.42;;
75680;SDS011;64294;49.176;16.626;2023-08-06T13:16:53;4.78;;;2.80;;
75680;SDS011;64294;49.176;16.626;2023-08-06T13:19:18;3.55;;;2.80;;
75680;SDS011;64294;49.176;16.626;2023-08-06T13:24:13;6.00;;;2.78;;
75680;SDS011;64294;49.176;16.626;2023-08-06T13:26:41;3.55;;;2.78;;
75680;SDS011;64294;49.176;16.626;2023-08-06T13:29:07;3.83;;;2.53;;
75680;SDS011;64294;49.176;16.626;2023-08-06T13:31:32;4.43;;;2.80;;
75680;SDS011;64294;49.176;16.626;2023-08-06T13:33:58;3.92;;;2.75;;
75680;SDS011;64294;49.176;16.626;2023-08-06T13:36:27;6.10;;;3.10;;
75680;SDS011;64294;49.176;16.626;2023-08-06T13:38:52;4.00;;;2.88;;
75680;SDS011;64294;49.176;16.626;2023-08-06T13:41:18;3.55;;;2.72;;
75680;SDS011;64294;49.176;16.626;2023-08-06T13:43:44;3.58;;;2.83;;
75680;SDS011;64294;49.176;16.626;2023-08-06T13:46:09;4.78;;;3.10;;
75680;SDS011;64294;49.176;16.626;2023-08-06T13:48:40;5.18;;;3.20;;
75680;SDS011;64294;49.176;16.626;2023-08-06T13:51:05;20.13;;;11.45;;
75680;SDS011;64294;49.176;16.626;2023-08-06T13:53:31;8.45;;;4.35;;
75680;SDS011;64294;49.176;16.626;2023-08-06T13:55:56;4.07;;;3.10;;
75680;SDS011;64294;49.176;16.626;2023-08-06T13:58:24;4.35;;;3.20;;
75680;SDS011;64294;49.176;16.626;2023-08-06T14:00:50;3.80;;;2.80;;
75680;SDS011;64294;49.176;16.626;2023-08-06T14:03:21;3.50;;;2.70;;
75680;SDS011;64294;49.176;16.626;2023-08-06T14:05:46;4.07;;;3.20;;
75680;SDS011;64294;49.176;16.626;2023-08-06T14:08:12;5.20;;;2.90;;
75680;SDS011;64294;49.176;16.626;2023-08-06T14:10:38;5.63;;;2.97;;
75680;SDS011;64294;49.176;16.626;2023-08-06T14:13:07;5.75;;;3.00;;
75680;SDS011;64294;49.176;16.626;2023-08-06T14:15:32;3.92;;;2.60;;
75680;SDS011;64294;49.176;16.626;2023-08-06T14:17:58;4.72;;;2.60;;
75680;SDS011;64294;49.176;16.626;2023-08-06T14:20:23;6.15;;;2.53;;
75680;SDS011;64294;49.176;16.626;2023-08-06T14:22:49;4.80;;;2.70;;
75680;SDS011;64294;49.176;16.626;2023-08-06T14:25:17;4.47;;;2.63;;
75680;SDS011;64294;49.176;16.626;2023-08-06T14:27:42;4.65;;;2.60;;
75680;SDS011;64294;49.176;16.626;2023-08-06T14:30:08;3.40;;;2.72;;
75680;SDS011;64294;49.176;16.626;2023-08-06T14:32:34;4.18;;;2.80;;
75680;SDS011;64294;49.176;16.626;2023-08-06T14:35:00;4.03;;;2.80;;
75680;SDS011;64294;49.176;16.626;2023-08-06T14:37:25;4.68;;;3.00;;
75680;SDS011;64294;49.176;16.626;2023-08-06T14:39:51;4.20;;;2.97;;
75680;SDS011;64294;49.176;16.626;2023-08-06T14:42:17;6.22;;;3.30;;
75680;SDS011;64294;49.176;16.626;2023-08-06T14:44:42;5.03;;;3.05;;
75680;SDS011;64294;49.176;16.626;2023-08-06T14:47:08;6.25;;;3.00;;
75680;SDS011;64294;49.176;16.626;2023-08-06T14:49:33;4.45;;;3.10;;
75680;SDS011;64294;49.176;16.626;2023-08-06T14:51:59;5.95;;;3.10;;
75680;SDS011;64294;49.176;16.626;2023-08-06T14:54:26;4.72;;;3.20;;